Kapetan Fotis — SY5230 — position and weather

sailwx.info

Track history (hours):
 
Tides and Currents Weather Stations Pressure Air Temp Water Temp Dewpoint Dewpoint Depression Visibility Wind Speed Wind Dir Waves Ship Positions

Kapetan Fotis

Last reported at 2017-Sep-20 10:36 UTC. Time now 2017-Sep-21 01:32 UTC.
Position N 40°17' E 024°05'.

Length 33 m; draft 2.5 m.

Type: Passenger vessel. MMSI: 237813500.

Date/timePositionNaut miles runAvg speedWind from/ knotsBaromVisibWave heightAir tempDewpointWater temp
2017-Sep-20 10:36N 40°17' E 024°05'111.0
2017-Sep-20 10:28N 40°16' E 024°06'5 9.5
2017-Sep-20 09:57N 40°14' E 024°12'510.2
2017-Sep-20 09:27N 40°10' E 024°16'5 8.4
2017-Sep-20 08:53N 40°13' E 024°12'3 8.7
2017-Sep-20 08:30N 40°16' E 024°10'510.6
2017-Sep-20 07:59N 40°17' E 024°03'6 0.3
2017-Sep-19 11:58N 40°20' E 023°55'1 1.1
2017-Sep-19 11:30N 40°20' E 023°56'7 8.3
2017-Sep-19 10:36N 40°17' E 024°05'111.1
2017-Sep-19 10:30N 40°16' E 024°06'5 9.8
2017-Sep-19 09:58N 40°14' E 024°12'510.5
2017-Sep-19 09:28N 40°10' E 024°16'5 9.7
2017-Sep-19 08:56N 40°14' E 024°12'4 8.2
2017-Sep-19 08:29N 40°16' E 024°09'7 0.4
2017-Sep-18 14:45N 40°18' E 024°00'410.9
2017-Sep-18 14:25N 40°16' E 024°05'410.9
2017-Sep-18 14:00N 40°14' E 024°09'611.0
2017-Sep-18 13:29N 40°10' E 024°15'2 4.7
2017-Sep-18 12:58N 40°12' E 024°13'510.5
2017-Sep-18 12:29N 40°16' E 024°09'510.8
2017-Sep-18 11:59N 40°17' E 024°02'4 6.0
2017-Sep-18 11:24N 40°19' E 023°59'711.0
2017-Sep-18 10:48N 40°16' E 024°06'311.0
2017-Sep-18 10:30N 40°14' E 024°09'710.0
2017-Sep-18 09:50N 40°10' E 024°16'0 0.5
2017-Sep-18 09:13N 40°10' E 024°16'410.5
2017-Sep-18 08:49N 40°13' E 024°12'310.9
2017-Sep-18 08:30N 40°16' E 024°10'9 0.5
2017-Sep-17 14:46N 40°19' E 023°59'611.2
2017-Sep-17 14:13N 40°16' E 024°05'211.1
2017-Sep-17 14:00N 40°14' E 024°08'611.1
2017-Sep-17 13:30N 40°11' E 024°14'0 0.2
2017-Sep-17 12:58N 40°11' E 024°14'510.7
2017-Sep-17 12:28N 40°16' E 024°10'510.6
2017-Sep-17 12:00N 40°17' E 024°04'4 3.7
2017-Sep-17 11:01N 40°19' E 023°60'011.4
2017-Sep-17 11:00N 40°19' E 023°60'610.9
2017-Sep-17 10:30N 40°16' E 024°07'5 9.0
2017-Sep-17 09:58N 40°14' E 024°12'510.4
2017-Sep-17 09:28N 40°10' E 024°16'8 8.0
2017-Sep-17 08:30N 40°16' E 024°10'511.1
2017-Sep-17 08:00N 40°17' E 024°03'4 1.9
2017-Sep-17 05:56N 40°20' E 023°59'2 3.5
2017-Sep-17 05:30N 40°20' E 023°57'2 0.1
2017-Sep-16 14:47N 40°19' E 023°59'410.9
2017-Sep-16 14:25N 40°17' E 024°03'410.7
2017-Sep-16 14:00N 40°14' E 024°08'510.7
2017-Sep-16 13:30N 40°11' E 024°14'3 3.3
2017-Sep-16 12:45N 40°13' E 024°12'310.8
2017-Sep-16 12:30N 40°16' E 024°10'510.5
2017-Sep-16 12:00N 40°17' E 024°04'3 3.3
2017-Sep-16 10:59N 40°18' E 023°60'710.9
2017-Sep-16 10:21N 40°16' E 024°08'4 9.4
2017-Sep-16 09:56N 40°14' E 024°12'410.1
2017-Sep-16 09:29N 40°10' E 024°16'4 7.5
2017-Sep-16 08:55N 40°13' E 024°12'4 9.0
2017-Sep-16 08:30N 40°16' E 024°09'7 0.4
2017-Sep-15 14:43N 40°19' E 023°60'510.8
2017-Sep-15 14:12N 40°16' E 024°06'310.7
2017-Sep-15 13:57N 40°14' E 024°09'510.8
2017-Sep-15 13:30N 40°11' E 024°14'3 3.8
2017-Sep-15 12:40N 40°14' E 024°12'210.9
2017-Sep-15 12:30N 40°15' E 024°11'9 5.2
2017-Sep-15 10:49N 40°19' E 024°00'510.8
2017-Sep-15 10:24N 40°16' E 024°05'410.8
2017-Sep-15 10:00N 40°13' E 024°10'4 4.3
2017-Sep-15 09:05N 40°11' E 024°14'310.6
2017-Sep-15 08:50N 40°14' E 024°12'410.8
2017-Sep-15 08:30N 40°16' E 024°09'2 0.1
2017-Sep-14 17:04N 40°16' E 024°07'110.7
2017-Sep-14 16:58N 40°15' E 024°08'2 3.1
2017-Sep-14 16:27N 40°16' E 024°10'5 8.3
2017-Sep-14 15:52N 40°17' E 024°04'3 2.1
2017-Sep-14 14:17N 40°18' E 023°60'411.0
2017-Sep-14 13:53N 40°16' E 024°05'510.9
2017-Sep-14 13:28N 40°13' E 024°09'3 1.1
2017-Sep-14 10:24N 40°16' E 024°07'6 9.7
2017-Sep-14 09:47N 40°12' E 024°13'311.5
2017-Sep-14 09:29N 40°10' E 024°16'7 7.8
2017-Sep-14 08:35N 40°15' E 024°10'1 6.5
2017-Sep-14 08:25N 40°16' E 024°10'3 0.1
2017-Sep-13 10:28N 40°16' E 024°06'5 8.9
2017-Sep-13 09:53N 40°14' E 024°12'4 9.9
2017-Sep-13 09:29N 40°10' E 024°15'2 4.6
2017-Sep-13 09:00N 40°12' E 024°13'4 9.1
2017-Sep-13 08:30N 40°16' E 024°10'4 0.2
2017-Sep-12 14:11N 40°15' E 024°05'210.8
2017-Sep-12 13:58N 40°14' E 024°07'510.6
2017-Sep-12 13:30N 40°11' E 024°12'2 2.7
2017-Sep-12 12:37N 40°13' E 024°12'210.9
2017-Sep-12 12:24N 40°15' E 024°10'410.4
2017-Sep-12 11:58N 40°17' E 024°05'4 3.8
2017-Sep-12 10:53N 40°18' E 023°60'410.8
2017-Sep-12 10:30N 40°15' E 024°03'510.8
2017-Sep-12 10:00N 40°12' E 024°09'510.5
2017-Sep-12 09:30N 40°09' E 024°15'4 6.8
2017-Sep-12 08:53N 40°13' E 024°12'410.1
2017-Sep-12 08:29N 40°16' E 024°09'8 0.5
2017-Sep-11 14:58N 40°19' E 023°59'611.1
2017-Sep-11 14:25N 40°15' E 024°05'510.8
2017-Sep-11 13:54N 40°12' E 024°11'3 6.4
2017-Sep-11 13:23N 40°11' E 024°15'410.7
2017-Sep-11 12:59N 40°14' E 024°12'510.5
2017-Sep-11 12:30N 40°17' E 024°06'2 1.6
2017-Sep-11 11:13N 40°16' E 024°04'311.1
2017-Sep-11 11:00N 40°15' E 024°06'510.8
2017-Sep-11 10:30N 40°12' E 024°12'4 5.9
2017-Sep-11 09:51N 40°10' E 024°16'3 3.4
2017-Sep-11 09:02N 40°11' E 024°13'210.7
2017-Sep-11 08:49N 40°13' E 024°12'410.8
2017-Sep-11 08:29N 40°16' E 024°09'2 0.1
2017-Sep-10 14:01N 40°14' E 024°09'3 2.6
2017-Sep-10 12:51N 40°13' E 024°12'410.4
2017-Sep-10 12:29N 40°16' E 024°09'  
Track history (hours):
 
Tides and Currents Weather Stations Pressure Air Temp Water Temp Dewpoint Dewpoint Depression Visibility Wind Speed Wind Dir Waves Ship Positions

Kapetan Fotis

Last reported at 2017-Sep-20 10:36 UTC. Time now 2017-Sep-21 01:32 UTC.
Position N 40°17' E 024°05'.

Length 33 m; draft 2.5 m.

Type: Passenger vessel. MMSI: 237813500.

Date/timePositionNaut miles runAvg speedWind from/ knotsBaromVisibWave heightAir tempDewpointWater temp
2017-Sep-20 10:36N 40°17' E 024°05'111.0
2017-Sep-20 10:28N 40°16' E 024°06'5 9.5
2017-Sep-20 09:57N 40°14' E 024°12'510.2
2017-Sep-20 09:27N 40°10' E 024°16'5 8.4
2017-Sep-20 08:53N 40°13' E 024°12'3 8.7
2017-Sep-20 08:30N 40°16' E 024°10'510.6
2017-Sep-20 07:59N 40°17' E 024°03'6 0.3
2017-Sep-19 11:58N 40°20' E 023°55'1 1.1
2017-Sep-19 11:30N 40°20' E 023°56'7 8.3
2017-Sep-19 10:36N 40°17' E 024°05'111.1
2017-Sep-19 10:30N 40°16' E 024°06'5 9.8
2017-Sep-19 09:58N 40°14' E 024°12'510.5
2017-Sep-19 09:28N 40°10' E 024°16'5 9.7
2017-Sep-19 08:56N 40°14' E 024°12'4 8.2
2017-Sep-19 08:29N 40°16' E 024°09'7 0.4
2017-Sep-18 14:45N 40°18' E 024°00'410.9
2017-Sep-18 14:25N 40°16' E 024°05'410.9
2017-Sep-18 14:00N 40°14' E 024°09'611.0
2017-Sep-18 13:29N 40°10' E 024°15'2 4.7
2017-Sep-18 12:58N 40°12' E 024°13'510.5
2017-Sep-18 12:29N 40°16' E 024°09'510.8
2017-Sep-18 11:59N 40°17' E 024°02'4 6.0
2017-Sep-18 11:24N 40°19' E 023°59'711.0
2017-Sep-18 10:48N 40°16' E 024°06'311.0
2017-Sep-18 10:30N 40°14' E 024°09'710.0
2017-Sep-18 09:50N 40°10' E 024°16'0 0.5
2017-Sep-18 09:13N 40°10' E 024°16'410.5
2017-Sep-18 08:49N 40°13' E 024°12'310.9
2017-Sep-18 08:30N 40°16' E 024°10'9 0.5
2017-Sep-17 14:46N 40°19' E 023°59'611.2
2017-Sep-17 14:13N 40°16' E 024°05'211.1
2017-Sep-17 14:00N 40°14' E 024°08'611.1
2017-Sep-17 13:30N 40°11' E 024°14'0 0.2
2017-Sep-17 12:58N 40°11' E 024°14'510.7
2017-Sep-17 12:28N 40°16' E 024°10'510.6
2017-Sep-17 12:00N 40°17' E 024°04'4 3.7
2017-Sep-17 11:01N 40°19' E 023°60'011.4
2017-Sep-17 11:00N 40°19' E 023°60'610.9
2017-Sep-17 10:30N 40°16' E 024°07'5 9.0
2017-Sep-17 09:58N 40°14' E 024°12'510.4
2017-Sep-17 09:28N 40°10' E 024°16'8 8.0
2017-Sep-17 08:30N 40°16' E 024°10'511.1
2017-Sep-17 08:00N 40°17' E 024°03'4 1.9
2017-Sep-17 05:56N 40°20' E 023°59'2 3.5
2017-Sep-17 05:30N 40°20' E 023°57'2 0.1
2017-Sep-16 14:47N 40°19' E 023°59'410.9
2017-Sep-16 14:25N 40°17' E 024°03'410.7
2017-Sep-16 14:00N 40°14' E 024°08'510.7
2017-Sep-16 13:30N 40°11' E 024°14'3 3.3
2017-Sep-16 12:45N 40°13' E 024°12'310.8
2017-Sep-16 12:30N 40°16' E 024°10'510.5
2017-Sep-16 12:00N 40°17' E 024°04'3 3.3
2017-Sep-16 10:59N 40°18' E 023°60'710.9
2017-Sep-16 10:21N 40°16' E 024°08'4 9.4
2017-Sep-16 09:56N 40°14' E 024°12'410.1
2017-Sep-16 09:29N 40°10' E 024°16'4 7.5
2017-Sep-16 08:55N 40°13' E 024°12'4 9.0
2017-Sep-16 08:30N 40°16' E 024°09'7 0.4
2017-Sep-15 14:43N 40°19' E 023°60'510.8
2017-Sep-15 14:12N 40°16' E 024°06'310.7
2017-Sep-15 13:57N 40°14' E 024°09'510.8
2017-Sep-15 13:30N 40°11' E 024°14'3 3.8
2017-Sep-15 12:40N 40°14' E 024°12'210.9
2017-Sep-15 12:30N 40°15' E 024°11'9 5.2
2017-Sep-15 10:49N 40°19' E 024°00'510.8
2017-Sep-15 10:24N 40°16' E 024°05'410.8
2017-Sep-15 10:00N 40°13' E 024°10'4 4.3
2017-Sep-15 09:05N 40°11' E 024°14'310.6
2017-Sep-15 08:50N 40°14' E 024°12'410.8
2017-Sep-15 08:30N 40°16' E 024°09'2 0.1
2017-Sep-14 17:04N 40°16' E 024°07'110.7
2017-Sep-14 16:58N 40°15' E 024°08'2 3.1
2017-Sep-14 16:27N 40°16' E 024°10'5 8.3
2017-Sep-14 15:52N 40°17' E 024°04'3 2.1
2017-Sep-14 14:17N 40°18' E 023°60'411.0
2017-Sep-14 13:53N 40°16' E 024°05'510.9
2017-Sep-14 13:28N 40°13' E 024°09'3 1.1
2017-Sep-14 10:24N 40°16' E 024°07'6 9.7
2017-Sep-14 09:47N 40°12' E 024°13'311.5
2017-Sep-14 09:29N 40°10' E 024°16'7 7.8
2017-Sep-14 08:35N 40°15' E 024°10'1 6.5
2017-Sep-14 08:25N 40°16' E 024°10'3 0.1
2017-Sep-13 10:28N 40°16' E 024°06'5 8.9
2017-Sep-13 09:53N 40°14' E 024°12'4 9.9
2017-Sep-13 09:29N 40°10' E 024°15'2 4.6
2017-Sep-13 09:00N 40°12' E 024°13'4 9.1
2017-Sep-13 08:30N 40°16' E 024°10'4 0.2
2017-Sep-12 14:11N 40°15' E 024°05'210.8
2017-Sep-12 13:58N 40°14' E 024°07'510.6
2017-Sep-12 13:30N 40°11' E 024°12'2 2.7
2017-Sep-12 12:37N 40°13' E 024°12'210.9
2017-Sep-12 12:24N 40°15' E 024°10'410.4
2017-Sep-12 11:58N 40°17' E 024°05'4 3.8
2017-Sep-12 10:53N 40°18' E 023°60'410.8
2017-Sep-12 10:30N 40°15' E 024°03'510.8
2017-Sep-12 10:00N 40°12' E 024°09'510.5
2017-Sep-12 09:30N 40°09' E 024°15'4 6.8
2017-Sep-12 08:53N 40°13' E 024°12'410.1
2017-Sep-12 08:29N 40°16' E 024°09'8 0.5
2017-Sep-11 14:58N 40°19' E 023°59'611.1
2017-Sep-11 14:25N 40°15' E 024°05'510.8
2017-Sep-11 13:54N 40°12' E 024°11'3 6.4
2017-Sep-11 13:23N 40°11' E 024°15'410.7
2017-Sep-11 12:59N 40°14' E 024°12'510.5
2017-Sep-11 12:30N 40°17' E 024°06'2 1.6
2017-Sep-11 11:13N 40°16' E 024°04'311.1
2017-Sep-11 11:00N 40°15' E 024°06'510.8
2017-Sep-11 10:30N 40°12' E 024°12'4 5.9
2017-Sep-11 09:51N 40°10' E 024°16'3 3.4
2017-Sep-11 09:02N 40°11' E 024°13'210.7
2017-Sep-11 08:49N 40°13' E 024°12'410.8
2017-Sep-11 08:29N 40°16' E 024°09'2 0.1
2017-Sep-10 14:01N 40°14' E 024°09'3 2.6
2017-Sep-10 12:51N 40°13' E 024°12'410.4
2017-Sep-10 12:29N 40°16' E 024°09'  

Dump ship's entire track history